sensor_id;sensor_type;location;lat;lon;timestamp;P1;durP1;ratioP1;P2;durP2;ratioP2
62030;SDS011;62035;52.094;5.112;2023-03-01T00:01:19;17.25;;;9.60;;
62030;SDS011;62035;52.094;5.112;2023-03-01T00:03:50;17.10;;;9.75;;
62030;SDS011;62035;52.094;5.112;2023-03-01T00:06:20;14.93;;;9.13;;
62030;SDS011;62035;52.094;5.112;2023-03-01T00:08:48;16.80;;;10.25;;
62030;SDS011;62035;52.094;5.112;2023-03-01T00:11:17;14.98;;;9.20;;
62030;SDS011;62035;52.094;5.112;2023-03-01T00:13:48;15.20;;;9.02;;
62030;SDS011;62035;52.094;5.112;2023-03-01T00:16:19;14.70;;;9.07;;
62030;SDS011;62035;52.094;5.112;2023-03-01T00:18:53;14.60;;;9.65;;
62030;SDS011;62035;52.094;5.112;2023-03-01T00:21:21;18.75;;;9.95;;
62030;SDS011;62035;52.094;5.112;2023-03-01T00:23:49;15.45;;;9.63;;
62030;SDS011;62035;52.094;5.112;2023-03-01T00:26:18;17.08;;;9.23;;
62030;SDS011;62035;52.094;5.112;2023-03-01T00:28:48;16.90;;;9.27;;
62030;SDS011;62035;52.094;5.112;2023-03-01T00:31:16;18.50;;;9.30;;
62030;SDS011;62035;52.094;5.112;2023-03-01T00:33:48;14.82;;;8.50;;
62030;SDS011;62035;52.094;5.112;2023-03-01T00:36:19;12.65;;;8.18;;
62030;SDS011;62035;52.094;5.112;2023-03-01T00:38:46;15.98;;;8.70;;
62030;SDS011;62035;52.094;5.112;2023-03-01T00:41:15;14.40;;;8.52;;
62030;SDS011;62035;52.094;5.112;2023-03-01T00:43:44;14.05;;;8.55;;
62030;SDS011;62035;52.094;5.112;2023-03-01T00:46:13;14.27;;;8.80;;
62030;SDS011;62035;52.094;5.112;2023-03-01T00:48:43;13.10;;;8.90;;
62030;SDS011;62035;52.094;5.112;2023-03-01T00:51:13;12.88;;;8.45;;
62030;SDS011;62035;52.094;5.112;2023-03-01T00:53:44;16.40;;;9.02;;
62030;SDS011;62035;52.094;5.112;2023-03-01T00:56:13;15.07;;;8.68;;
62030;SDS011;62035;52.094;5.112;2023-03-01T00:58:42;13.40;;;8.93;;
62030;SDS011;62035;52.094;5.112;2023-03-01T01:01:10;16.25;;;8.45;;
62030;SDS011;62035;52.094;5.112;2023-03-01T01:03:44;14.60;;;8.95;;
62030;SDS011;62035;52.094;5.112;2023-03-01T01:06:19;14.40;;;8.57;;
62030;SDS011;62035;52.094;5.112;2023-03-01T01:08:50;15.88;;;9.32;;
62030;SDS011;62035;52.094;5.112;2023-03-01T01:11:20;12.15;;;8.05;;
62030;SDS011;62035;52.094;5.112;2023-03-01T01:13:50;14.88;;;8.43;;
62030;SDS011;62035;52.094;5.112;2023-03-01T01:16:19;12.02;;;8.25;;
62030;SDS011;62035;52.094;5.112;2023-03-01T01:18:49;14.45;;;9.20;;
62030;SDS011;62035;52.094;5.112;2023-03-01T01:21:20;15.38;;;9.45;;
62030;SDS011;62035;52.094;5.112;2023-03-01T01:23:50;17.70;;;8.88;;
62030;SDS011;62035;52.094;5.112;2023-03-01T01:26:18;16.50;;;9.73;;
62030;SDS011;62035;52.094;5.112;2023-03-01T01:28:48;12.45;;;8.43;;
62030;SDS011;62035;52.094;5.112;2023-03-01T01:31:16;16.42;;;9.20;;
62030;SDS011;62035;52.094;5.112;2023-03-01T01:33:45;15.75;;;9.07;;
62030;SDS011;62035;52.094;5.112;2023-03-01T01:36:13;17.05;;;10.20;;
62030;SDS011;62035;52.094;5.112;2023-03-01T01:38:42;14.80;;;9.35;;
62030;SDS011;62035;52.094;5.112;2023-03-01T01:41:10;14.23;;;9.13;;
62030;SDS011;62035;52.094;5.112;2023-03-01T01:43:40;16.30;;;9.15;;
62030;SDS011;62035;52.094;5.112;2023-03-01T01:46:14;14.95;;;9.55;;
62030;SDS011;62035;52.094;5.112;2023-03-01T01:49:05;14.50;;;9.07;;
62030;SDS011;62035;52.094;5.112;2023-03-01T01:51:44;15.30;;;9.48;;
62030;SDS011;62035;52.094;5.112;2023-03-01T01:54:18;17.02;;;10.00;;
62030;SDS011;62035;52.094;5.112;2023-03-01T01:56:52;16.52;;;10.00;;
62030;SDS011;62035;52.094;5.112;2023-03-01T01:59:24;17.52;;;10.40;;
62030;SDS011;62035;52.094;5.112;2023-03-01T02:01:55;15.57;;;9.40;;
62030;SDS011;62035;52.094;5.112;2023-03-01T02:04:27;18.00;;;10.82;;
62030;SDS011;62035;52.094;5.112;2023-03-01T02:06:57;14.18;;;9.02;;
62030;SDS011;62035;52.094;5.112;2023-03-01T02:09:33;16.33;;;10.13;;
62030;SDS011;62035;52.094;5.112;2023-03-01T02:12:02;23.38;;;11.07;;
62030;SDS011;62035;52.094;5.112;2023-03-01T02:14:32;19.80;;;10.98;;
62030;SDS011;62035;52.094;5.112;2023-03-01T02:17:00;17.58;;;11.40;;
62030;SDS011;62035;52.094;5.112;2023-03-01T02:19:31;17.80;;;10.85;;
62030;SDS011;62035;52.094;5.112;2023-03-01T02:22:19;17.00;;;10.27;;
62030;SDS011;62035;52.094;5.112;2023-03-01T02:24:57;20.58;;;10.45;;
62030;SDS011;62035;52.094;5.112;2023-03-01T02:27:47;20.35;;;11.40;;
62030;SDS011;62035;52.094;5.112;2023-03-01T02:30:26;17.33;;;10.60;;
62030;SDS011;62035;52.094;5.112;2023-03-01T02:32:56;19.77;;;11.60;;
62030;SDS011;62035;52.094;5.112;2023-03-01T02:35:28;19.95;;;10.90;;
62030;SDS011;62035;52.094;5.112;2023-03-01T02:38:06;17.88;;;10.60;;
62030;SDS011;62035;52.094;5.112;2023-03-01T02:40:36;19.70;;;11.68;;
62030;SDS011;62035;52.094;5.112;2023-03-01T02:43:07;20.10;;;11.02;;
62030;SDS011;62035;52.094;5.112;2023-03-01T02:45:44;21.73;;;11.60;;
62030;SDS011;62035;52.094;5.112;2023-03-01T02:48:16;17.80;;;11.38;;
62030;SDS011;62035;52.094;5.112;2023-03-01T02:50:47;18.77;;;10.43;;
62030;SDS011;62035;52.094;5.112;2023-03-01T02:53:32;19.95;;;10.82;;
62030;SDS011;62035;52.094;5.112;2023-03-01T02:56:11;19.30;;;11.32;;
62030;SDS011;62035;52.094;5.112;2023-03-01T02:58:40;20.95;;;11.15;;
62030;SDS011;62035;52.094;5.112;2023-03-01T03:01:15;22.08;;;11.95;;
62030;SDS011;62035;52.094;5.112;2023-03-01T03:03:42;18.42;;;11.32;;
62030;SDS011;62035;52.094;5.112;2023-03-01T03:06:10;18.10;;;10.98;;
62030;SDS011;62035;52.094;5.112;2023-03-01T03:08:38;18.67;;;10.45;;
62030;SDS011;62035;52.094;5.112;2023-03-01T03:11:05;20.50;;;10.98;;
62030;SDS011;62035;52.094;5.112;2023-03-01T03:13:33;20.45;;;11.15;;
62030;SDS011;62035;52.094;5.112;2023-03-01T03:16:01;20.13;;;10.50;;
62030;SDS011;62035;52.094;5.112;2023-03-01T03:18:31;19.40;;;11.68;;
62030;SDS011;62035;52.094;5.112;2023-03-01T03:20:59;18.63;;;11.00;;
62030;SDS011;62035;52.094;5.112;2023-03-01T03:23:27;16.77;;;10.52;;
62030;SDS011;62035;52.094;5.112;2023-03-01T03:25:55;18.63;;;11.55;;
62030;SDS011;62035;52.094;5.112;2023-03-01T03:28:23;17.77;;;10.77;;
62030;SDS011;62035;52.094;5.112;2023-03-01T03:30:51;15.23;;;10.23;;
62030;SDS011;62035;52.094;5.112;2023-03-01T03:33:18;15.23;;;9.75;;
62030;SDS011;62035;52.094;5.112;2023-03-01T03:35:48;18.77;;;10.48;;
62030;SDS011;62035;52.094;5.112;2023-03-01T03:38:18;21.55;;;11.15;;
62030;SDS011;62035;52.094;5.112;2023-03-01T03:40:48;23.55;;;11.57;;
62030;SDS011;62035;52.094;5.112;2023-03-01T03:43:18;16.83;;;10.50;;
62030;SDS011;62035;52.094;5.112;2023-03-01T03:45:48;17.58;;;10.00;;
62030;SDS011;62035;52.094;5.112;2023-03-01T03:48:19;17.15;;;10.77;;
62030;SDS011;62035;52.094;5.112;2023-03-01T03:50:50;18.20;;;10.93;;
62030;SDS011;62035;52.094;5.112;2023-03-01T03:53:20;19.65;;;10.48;;
62030;SDS011;62035;52.094;5.112;2023-03-01T03:55:50;15.20;;;9.75;;
62030;SDS011;62035;52.094;5.112;2023-03-01T03:58:18;20.58;;;10.20;;
62030;SDS011;62035;52.094;5.112;2023-03-01T04:00:50;15.48;;;9.10;;
62030;SDS011;62035;52.094;5.112;2023-03-01T04:03:19;18.25;;;9.93;;
62030;SDS011;62035;52.094;5.112;2023-03-01T04:05:50;15.93;;;9.32;;
62030;SDS011;62035;52.094;5.112;2023-03-01T04:08:19;18.30;;;10.25;;
62030;SDS011;62035;52.094;5.112;2023-03-01T04:10:49;19.45;;;9.38;;
62030;SDS011;62035;52.094;5.112;2023-03-01T04:13:21;14.73;;;9.25;;
62030;SDS011;62035;52.094;5.112;2023-03-01T04:15:51;15.35;;;8.80;;
62030;SDS011;62035;52.094;5.112;2023-03-01T04:18:20;14.82;;;9.27;;
62030;SDS011;62035;52.094;5.112;2023-03-01T04:20:52;19.77;;;10.68;;
62030;SDS011;62035;52.094;5.112;2023-03-01T04:23:21;16.95;;;9.82;;
62030;SDS011;62035;52.094;5.112;2023-03-01T04:25:49;18.20;;;9.65;;
62030;SDS011;62035;52.094;5.112;2023-03-01T04:28:21;17.33;;;9.90;;
62030;SDS011;62035;52.094;5.112;2023-03-01T04:30:51;14.55;;;9.75;;
62030;SDS011;62035;52.094;5.112;2023-03-01T04:33:20;15.45;;;8.70;;
62030;SDS011;62035;52.094;5.112;2023-03-01T04:35:48;15.82;;;9.20;;
62030;SDS011;62035;52.094;5.112;2023-03-01T04:38:17;14.68;;;8.45;;
62030;SDS011;62035;52.094;5.112;2023-03-01T04:40:46;17.80;;;9.75;;
62030;SDS011;62035;52.094;5.112;2023-03-01T04:43:14;14.10;;;9.43;;
62030;SDS011;62035;52.094;5.112;2023-03-01T04:45:43;13.48;;;8.80;;
62030;SDS011;62035;52.094;5.112;2023-03-01T04:48:11;15.52;;;9.68;;
62030;SDS011;62035;52.094;5.112;2023-03-01T04:50:38;15.85;;;9.40;;
62030;SDS011;62035;52.094;5.112;2023-03-01T04:53:06;15.93;;;9.07;;
62030;SDS011;62035;52.094;5.112;2023-03-01T04:55:35;17.27;;;9.38;;
62030;SDS011;62035;52.094;5.112;2023-03-01T04:58:02;17.83;;;9.70;;
62030;SDS011;62035;52.094;5.112;2023-03-01T05:00:30;15.80;;;9.40;;
62030;SDS011;62035;52.094;5.112;2023-03-01T05:02:59;16.75;;;9.77;;
62030;SDS011;62035;52.094;5.112;2023-03-01T05:05:29;19.45;;;10.18;;
62030;SDS011;62035;52.094;5.112;2023-03-01T05:08:00;15.35;;;8.85;;
62030;SDS011;62035;52.094;5.112;2023-03-01T05:10:31;15.52;;;9.30;;
62030;SDS011;62035;52.094;5.112;2023-03-01T05:13:03;14.02;;;9.13;;
62030;SDS011;62035;52.094;5.112;2023-03-01T05:15:32;18.52;;;10.10;;
62030;SDS011;62035;52.094;5.112;2023-03-01T05:17:59;15.02;;;9.68;;
62030;SDS011;62035;52.094;5.112;2023-03-01T05:20:28;16.80;;;9.93;;
62030;SDS011;62035;52.094;5.112;2023-03-01T05:22:57;20.15;;;9.90;;
62030;SDS011;62035;52.094;5.112;2023-03-01T05:25:31;15.75;;;9.73;;
62030;SDS011;62035;52.094;5.112;2023-03-01T05:28:00;18.40;;;10.25;;
62030;SDS011;62035;52.094;5.112;2023-03-01T05:30:30;17.42;;;10.48;;
62030;SDS011;62035;52.094;5.112;2023-03-01T05:32:59;18.02;;;10.43;;
62030;SDS011;62035;52.094;5.112;2023-03-01T05:35:27;20.25;;;10.27;;
62030;SDS011;62035;52.094;5.112;2023-03-01T05:37:58;18.98;;;10.35;;
62030;SDS011;62035;52.094;5.112;2023-03-01T05:40:26;20.38;;;10.50;;
62030;SDS011;62035;52.094;5.112;2023-03-01T05:42:55;19.13;;;10.73;;
62030;SDS011;62035;52.094;5.112;2023-03-01T05:45:25;19.52;;;10.68;;
62030;SDS011;62035;52.094;5.112;2023-03-01T05:47:54;22.40;;;11.02;;
62030;SDS011;62035;52.094;5.112;2023-03-01T05:50:23;20.58;;;11.02;;
62030;SDS011;62035;52.094;5.112;2023-03-01T05:52:56;17.60;;;10.68;;
62030;SDS011;62035;52.094;5.112;2023-03-01T05:55:27;22.55;;;11.15;;
62030;SDS011;62035;52.094;5.112;2023-03-01T05:57:57;19.05;;;10.73;;
62030;SDS011;62035;52.094;5.112;2023-03-01T06:00:27;19.83;;;11.38;;
62030;SDS011;62035;52.094;5.112;2023-03-01T06:02:57;20.90;;;11.10;;
62030;SDS011;62035;52.094;5.112;2023-03-01T06:05:27;21.38;;;11.07;;
62030;SDS011;62035;52.094;5.112;2023-03-01T06:07:57;25.15;;;10.95;;
62030;SDS011;62035;52.094;5.112;2023-03-01T06:10:26;19.30;;;11.48;;
62030;SDS011;62035;52.094;5.112;2023-03-01T06:12:54;20.85;;;11.23;;
62030;SDS011;62035;52.094;5.112;2023-03-01T06:15:23;21.73;;;11.27;;
62030;SDS011;62035;52.094;5.112;2023-03-01T06:17:54;22.52;;;10.82;;
62030;SDS011;62035;52.094;5.112;2023-03-01T06:20:24;20.88;;;11.18;;
62030;SDS011;62035;52.094;5.112;2023-03-01T06:22:53;19.33;;;10.48;;
62030;SDS011;62035;52.094;5.112;2023-03-01T06:25:21;17.17;;;10.00;;
62030;SDS011;62035;52.094;5.112;2023-03-01T06:27:52;18.33;;;9.57;;
62030;SDS011;62035;52.094;5.112;2023-03-01T06:30:20;15.60;;;9.63;;
62030;SDS011;62035;52.094;5.112;2023-03-01T06:32:49;19.85;;;10.20;;
62030;SDS011;62035;52.094;5.112;2023-03-01T06:35:19;17.77;;;10.55;;
62030;SDS011;62035;52.094;5.112;2023-03-01T06:37:47;16.52;;;9.57;;
62030;SDS011;62035;52.094;5.112;2023-03-01T06:40:15;15.20;;;9.35;;
62030;SDS011;62035;52.094;5.112;2023-03-01T06:42:47;20.30;;;11.27;;
62030;SDS011;62035;52.094;5.112;2023-03-01T06:45:17;22.98;;;10.82;;
62030;SDS011;62035;52.094;5.112;2023-03-01T06:47:47;20.00;;;10.48;;
62030;SDS011;62035;52.094;5.112;2023-03-01T06:50:15;18.73;;;10.25;;
62030;SDS011;62035;52.094;5.112;2023-03-01T06:52:45;22.45;;;10.70;;
62030;SDS011;62035;52.094;5.112;2023-03-01T06:55:13;20.27;;;10.70;;
62030;SDS011;62035;52.094;5.112;2023-03-01T06:57:41;18.50;;;10.95;;
62030;SDS011;62035;52.094;5.112;2023-03-01T07:00:09;19.73;;;10.27;;
62030;SDS011;62035;52.094;5.112;2023-03-01T07:02:38;20.92;;;12.27;;
62030;SDS011;62035;52.094;5.112;2023-03-01T07:05:06;19.95;;;10.65;;
62030;SDS011;62035;52.094;5.112;2023-03-01T07:07:35;19.70;;;11.23;;
62030;SDS011;62035;52.094;5.112;2023-03-01T07:10:03;20.65;;;12.18;;
62030;SDS011;62035;52.094;5.112;2023-03-01T07:12:32;25.25;;;12.80;;
62030;SDS011;62035;52.094;5.112;2023-03-01T07:15:00;20.83;;;12.13;;
62030;SDS011;62035;52.094;5.112;2023-03-01T07:17:28;24.15;;;12.40;;
62030;SDS011;62035;52.094;5.112;2023-03-01T07:19:55;26.88;;;13.07;;
62030;SDS011;62035;52.094;5.112;2023-03-01T07:22:23;25.40;;;13.45;;
62030;SDS011;62035;52.094;5.112;2023-03-01T07:24:52;25.40;;;13.20;;
62030;SDS011;62035;52.094;5.112;2023-03-01T07:27:19;27.45;;;15.13;;
62030;SDS011;62035;52.094;5.112;2023-03-01T07:29:47;28.30;;;14.07;;
62030;SDS011;62035;52.094;5.112;2023-03-01T07:32:15;28.15;;;14.63;;
62030;SDS011;62035;52.094;5.112;2023-03-01T07:34:42;23.45;;;13.30;;
62030;SDS011;62035;52.094;5.112;2023-03-01T07:37:10;25.73;;;14.20;;
62030;SDS011;62035;52.094;5.112;2023-03-01T07:39:37;27.35;;;13.15;;
62030;SDS011;62035;52.094;5.112;2023-03-01T07:42:06;24.80;;;13.48;;
62030;SDS011;62035;52.094;5.112;2023-03-01T07:44:34;21.95;;;11.95;;
62030;SDS011;62035;52.094;5.112;2023-03-01T07:47:02;25.20;;;12.60;;
62030;SDS011;62035;52.094;5.112;2023-03-01T07:49:30;26.70;;;12.93;;
62030;SDS011;62035;52.094;5.112;2023-03-01T07:51:58;18.88;;;11.38;;
62030;SDS011;62035;52.094;5.112;2023-03-01T07:54:25;19.55;;;11.48;;
62030;SDS011;62035;52.094;5.112;2023-03-01T07:56:53;18.38;;;10.93;;
62030;SDS011;62035;52.094;5.112;2023-03-01T07:59:22;18.75;;;10.40;;
62030;SDS011;62035;52.094;5.112;2023-03-01T08:01:54;18.58;;;10.25;;
62030;SDS011;62035;52.094;5.112;2023-03-01T08:04:22;18.77;;;10.27;;
62030;SDS011;62035;52.094;5.112;2023-03-01T08:06:50;14.77;;;8.82;;
62030;SDS011;62035;52.094;5.112;2023-03-01T08:09:18;14.63;;;8.68;;
62030;SDS011;62035;52.094;5.112;2023-03-01T08:11:46;16.13;;;8.88;;
62030;SDS011;62035;52.094;5.112;2023-03-01T08:14:13;15.75;;;9.27;;
62030;SDS011;62035;52.094;5.112;2023-03-01T08:16:42;14.80;;;8.07;;
62030;SDS011;62035;52.094;5.112;2023-03-01T08:19:11;17.80;;;7.90;;
62030;SDS011;62035;52.094;5.112;2023-03-01T08:21:39;22.15;;;8.48;;
62030;SDS011;62035;52.094;5.112;2023-03-01T08:24:07;16.45;;;8.10;;
62030;SDS011;62035;52.094;5.112;2023-03-01T08:26:36;16.55;;;8.13;;
62030;SDS011;62035;52.094;5.112;2023-03-01T08:29:04;13.20;;;7.63;;
62030;SDS011;62035;52.094;5.112;2023-03-01T08:31:32;14.68;;;8.00;;
62030;SDS011;62035;52.094;5.112;2023-03-01T08:34:04;11.70;;;7.25;;
62030;SDS011;62035;52.094;5.112;2023-03-01T08:36:36;13.63;;;7.55;;
62030;SDS011;62035;52.094;5.112;2023-03-01T08:39:06;14.23;;;7.07;;
62030;SDS011;62035;52.094;5.112;2023-03-01T08:41:36;12.52;;;7.63;;
62030;SDS011;62035;52.094;5.112;2023-03-01T08:44:04;12.82;;;6.80;;
62030;SDS011;62035;52.094;5.112;2023-03-01T08:46:33;10.90;;;6.82;;
62030;SDS011;62035;52.094;5.112;2023-03-01T08:49:04;11.18;;;7.05;;
62030;SDS011;62035;52.094;5.112;2023-03-01T08:51:33;10.70;;;7.00;;
62030;SDS011;62035;52.094;5.112;2023-03-01T08:54:02;10.70;;;6.45;;
62030;SDS011;62035;52.094;5.112;2023-03-01T08:56:30;10.15;;;5.80;;
62030;SDS011;62035;52.094;5.112;2023-03-01T08:58:58;9.93;;;6.30;;
62030;SDS011;62035;52.094;5.112;2023-03-01T09:01:26;9.88;;;5.50;;
62030;SDS011;62035;52.094;5.112;2023-03-01T09:03:53;10.80;;;6.28;;
62030;SDS011;62035;52.094;5.112;2023-03-01T09:06:22;11.98;;;5.82;;
62030;SDS011;62035;52.094;5.112;2023-03-01T09:08:50;9.68;;;5.75;;
62030;SDS011;62035;52.094;5.112;2023-03-01T09:11:19;12.93;;;6.43;;
62030;SDS011;62035;52.094;5.112;2023-03-01T09:13:48;10.95;;;6.00;;
62030;SDS011;62035;52.094;5.112;2023-03-01T09:16:17;15.20;;;6.70;;
62030;SDS011;62035;52.094;5.112;2023-03-01T09:18:48;9.93;;;6.30;;
62030;SDS011;62035;52.094;5.112;2023-03-01T09:21:18;11.85;;;6.13;;
62030;SDS011;62035;52.094;5.112;2023-03-01T09:23:50;14.45;;;6.10;;
62030;SDS011;62035;52.094;5.112;2023-03-01T09:26:18;9.38;;;5.90;;
62030;SDS011;62035;52.094;5.112;2023-03-01T09:28:47;10.82;;;6.00;;
62030;SDS011;62035;52.094;5.112;2023-03-01T09:31:19;11.25;;;6.03;;
62030;SDS011;62035;52.094;5.112;2023-03-01T09:33:51;9.35;;;6.22;;
62030;SDS011;62035;52.094;5.112;2023-03-01T09:36:21;14.63;;;6.15;;
62030;SDS011;62035;52.094;5.112;2023-03-01T09:38:53;9.70;;;5.63;;
62030;SDS011;62035;52.094;5.112;2023-03-01T09:41:27;10.15;;;5.40;;
62030;SDS011;62035;52.094;5.112;2023-03-01T09:44:11;8.25;;;5.15;;
62030;SDS011;62035;52.094;5.112;2023-03-01T09:46:52;9.50;;;5.77;;
62030;SDS011;62035;52.094;5.112;2023-03-01T09:49:20;9.88;;;5.15;;
62030;SDS011;62035;52.094;5.112;2023-03-01T09:51:55;7.97;;;5.03;;
62030;SDS011;62035;52.094;5.112;2023-03-01T09:54:29;8.00;;;5.07;;
62030;SDS011;62035;52.094;5.112;2023-03-01T09:57:02;6.72;;;4.20;;
62030;SDS011;62035;52.094;5.112;2023-03-01T09:59:48;7.85;;;4.68;;
62030;SDS011;62035;52.094;5.112;2023-03-01T10:02:38;11.30;;;4.97;;
62030;SDS011;62035;52.094;5.112;2023-03-01T10:05:17;11.45;;;4.97;;
62030;SDS011;62035;52.094;5.112;2023-03-01T10:08:02;9.18;;;4.53;;
62030;SDS011;62035;52.094;5.112;2023-03-01T10:10:53;8.27;;;4.45;;
62030;SDS011;62035;52.094;5.112;2023-03-01T10:13:23;6.85;;;4.32;;
62030;SDS011;62035;52.094;5.112;2023-03-01T10:15:59;9.23;;;4.35;;
62030;SDS011;62035;52.094;5.112;2023-03-01T10:18:36;7.20;;;4.47;;
62030;SDS011;62035;52.094;5.112;2023-03-01T10:21:09;8.50;;;4.50;;
62030;SDS011;62035;52.094;5.112;2023-03-01T10:23:42;7.82;;;4.20;;
62030;SDS011;62035;52.094;5.112;2023-03-01T10:26:20;7.15;;;3.92;;
62030;SDS011;62035;52.094;5.112;2023-03-01T10:29:07;7.07;;;3.20;;
62030;SDS011;62035;52.094;5.112;2023-03-01T10:31:38;9.07;;;3.60;;
62030;SDS011;62035;52.094;5.112;2023-03-01T10:34:11;8.93;;;3.72;;
62030;SDS011;62035;52.094;5.112;2023-03-01T10:36:42;6.00;;;3.90;;
62030;SDS011;62035;52.094;5.112;2023-03-01T10:39:13;7.55;;;3.50;;
62030;SDS011;62035;52.094;5.112;2023-03-01T10:42:01;6.30;;;3.60;;
62030;SDS011;62035;52.094;5.112;2023-03-01T10:44:35;7.68;;;3.72;;
62030;SDS011;62035;52.094;5.112;2023-03-01T10:47:12;5.18;;;3.67;;
62030;SDS011;62035;52.094;5.112;2023-03-01T10:49:51;6.80;;;3.45;;
62030;SDS011;62035;52.094;5.112;2023-03-01T10:52:32;6.90;;;4.22;;
62030;SDS011;62035;52.094;5.112;2023-03-01T10:55:03;6.85;;;3.92;;
62030;SDS011;62035;52.094;5.112;2023-03-01T10:57:54;6.38;;;4.00;;
62030;SDS011;62035;52.094;5.112;2023-03-01T11:00:46;8.57;;;4.57;;
62030;SDS011;62035;52.094;5.112;2023-03-01T11:03:19;12.20;;;4.32;;
62030;SDS011;62035;52.094;5.112;2023-03-01T11:05:55;10.63;;;4.55;;
62030;SDS011;62035;52.094;5.112;2023-03-01T11:08:31;6.75;;;4.38;;
62030;SDS011;62035;52.094;5.112;2023-03-01T11:11:17;6.90;;;4.32;;
62030;SDS011;62035;52.094;5.112;2023-03-01T11:13:58;9.23;;;4.95;;
62030;SDS011;62035;52.094;5.112;2023-03-01T11:16:33;6.50;;;3.83;;
62030;SDS011;62035;52.094;5.112;2023-03-01T11:19:14;8.40;;;3.67;;
62030;SDS011;62035;52.094;5.112;2023-03-01T11:21:59;8.18;;;4.25;;
62030;SDS011;62035;52.094;5.112;2023-03-01T11:24:38;6.47;;;3.78;;
62030;SDS011;62035;52.094;5.112;2023-03-01T11:27:15;6.95;;;3.78;;
62030;SDS011;62035;52.094;5.112;2023-03-01T11:29:50;6.35;;;3.75;;
62030;SDS011;62035;52.094;5.112;2023-03-01T11:32:25;4.78;;;3.40;;
62030;SDS011;62035;52.094;5.112;2023-03-01T11:35:02;7.30;;;3.72;;
62030;SDS011;62035;52.094;5.112;2023-03-01T11:37:43;5.50;;;3.65;;
62030;SDS011;62035;52.094;5.112;2023-03-01T11:40:27;7.00;;;4.38;;
62030;SDS011;62035;52.094;5.112;2023-03-01T11:43:03;7.53;;;3.78;;
62030;SDS011;62035;52.094;5.112;2023-03-01T11:45:46;8.55;;;4.05;;
62030;SDS011;62035;52.094;5.112;2023-03-01T11:48:46;7.78;;;3.85;;
62030;SDS011;62035;52.094;5.112;2023-03-01T11:51:31;8.20;;;4.15;;
62030;SDS011;62035;52.094;5.112;2023-03-01T11:54:17;7.95;;;4.55;;
62030;SDS011;62035;52.094;5.112;2023-03-01T11:57:01;9.05;;;4.55;;
62030;SDS011;62035;52.094;5.112;2023-03-01T11:59:47;6.18;;;3.88;;
62030;SDS011;62035;52.094;5.112;2023-03-01T12:05:56;6.53;;;3.10;;
62030;SDS011;62035;52.094;5.112;2023-03-01T12:08:55;7.75;;;3.20;;
62030;SDS011;62035;52.094;5.112;2023-03-01T12:11:43;4.97;;;3.10;;
62030;SDS011;62035;52.094;5.112;2023-03-01T12:14:33;7.55;;;3.88;;
62030;SDS011;62035;52.094;5.112;2023-03-01T12:17:25;5.80;;;3.42;;
62030;SDS011;62035;52.094;5.112;2023-03-01T12:20:29;4.65;;;3.03;;
62030;SDS011;62035;52.094;5.112;2023-03-01T12:23:23;7.90;;;3.20;;
62030;SDS011;62035;52.094;5.112;2023-03-01T12:26:17;6.65;;;2.60;;
62030;SDS011;62035;52.094;5.112;2023-03-01T12:29:00;5.70;;;2.92;;
62030;SDS011;62035;52.094;5.112;2023-03-01T12:31:53;7.15;;;2.53;;
62030;SDS011;62035;52.094;5.112;2023-03-01T12:38:32;4.35;;;2.55;;
62030;SDS011;62035;52.094;5.112;2023-03-01T12:41:11;5.38;;;2.78;;
62030;SDS011;62035;52.094;5.112;2023-03-01T12:44:08;4.40;;;2.65;;
62030;SDS011;62035;52.094;5.112;2023-03-01T12:47:03;5.60;;;2.93;;
62030;SDS011;62035;52.094;5.112;2023-03-01T12:49:48;5.95;;;2.47;;
62030;SDS011;62035;52.094;5.112;2023-03-01T12:52:25;5.95;;;2.67;;
62030;SDS011;62035;52.094;5.112;2023-03-01T12:55:06;6.05;;;2.80;;
62030;SDS011;62035;52.094;5.112;2023-03-01T12:57:53;5.10;;;2.40;;
62030;SDS011;62035;52.094;5.112;2023-03-01T13:00:36;6.55;;;2.95;;
62030;SDS011;62035;52.094;5.112;2023-03-01T13:03:16;7.13;;;2.90;;
62030;SDS011;62035;52.094;5.112;2023-03-01T13:06:02;5.60;;;2.92;;
62030;SDS011;62035;52.094;5.112;2023-03-01T13:08:42;8.13;;;3.00;;
62030;SDS011;62035;52.094;5.112;2023-03-01T13:11:17;7.07;;;2.85;;
62030;SDS011;62035;52.094;5.112;2023-03-01T13:13:48;4.43;;;3.25;;
62030;SDS011;62035;52.094;5.112;2023-03-01T13:16:21;4.43;;;2.90;;
62030;SDS011;62035;52.094;5.112;2023-03-01T13:19:09;4.10;;;2.67;;
62030;SDS011;62035;52.094;5.112;2023-03-01T13:21:43;4.68;;;2.90;;
62030;SDS011;62035;52.094;5.112;2023-03-01T13:24:25;4.82;;;2.95;;
62030;SDS011;62035;52.094;5.112;2023-03-01T13:27:11;4.80;;;2.67;;
62030;SDS011;62035;52.094;5.112;2023-03-01T13:29:55;6.00;;;3.25;;
62030;SDS011;62035;52.094;5.112;2023-03-01T13:32:29;6.30;;;2.88;;
62030;SDS011;62035;52.094;5.112;2023-03-01T13:34:59;5.00;;;2.97;;
62030;SDS011;62035;52.094;5.112;2023-03-01T13:37:31;5.78;;;2.80;;
62030;SDS011;62035;52.094;5.112;2023-03-01T13:40:56;5.15;;;3.10;;
62030;SDS011;62035;52.094;5.112;2023-03-01T13:43:30;6.80;;;3.13;;
62030;SDS011;62035;52.094;5.112;2023-03-01T13:46:00;6.03;;;3.13;;
62030;SDS011;62035;52.094;5.112;2023-03-01T13:48:36;5.25;;;2.75;;
62030;SDS011;62035;52.094;5.112;2023-03-01T13:51:07;6.65;;;3.03;;
62030;SDS011;62035;52.094;5.112;2023-03-01T13:53:39;7.85;;;3.55;;
62030;SDS011;62035;52.094;5.112;2023-03-01T13:56:13;6.65;;;3.10;;
62030;SDS011;62035;52.094;5.112;2023-03-01T13:58:50;5.72;;;2.90;;
62030;SDS011;62035;52.094;5.112;2023-03-01T14:01:26;5.05;;;2.80;;
62030;SDS011;62035;52.094;5.112;2023-03-01T14:03:56;6.68;;;3.22;;
62030;SDS011;62035;52.094;5.112;2023-03-01T14:06:25;5.70;;;2.97;;
62030;SDS011;62035;52.094;5.112;2023-03-01T14:09:02;10.13;;;2.92;;
62030;SDS011;62035;52.094;5.112;2023-03-01T14:11:58;4.68;;;3.28;;
62030;SDS011;62035;52.094;5.112;2023-03-01T14:14:54;7.25;;;2.95;;
62030;SDS011;62035;52.094;5.112;2023-03-01T14:17:32;4.35;;;2.83;;
62030;SDS011;62035;52.094;5.112;2023-03-01T14:20:17;5.15;;;3.10;;
62030;SDS011;62035;52.094;5.112;2023-03-01T14:22:49;5.70;;;2.83;;
62030;SDS011;62035;52.094;5.112;2023-03-01T14:27:54;6.15;;;2.72;;
62030;SDS011;62035;52.094;5.112;2023-03-01T14:30:26;5.82;;;2.47;;
62030;SDS011;62035;52.094;5.112;2023-03-01T14:33:00;4.57;;;2.85;;
62030;SDS011;62035;52.094;5.112;2023-03-01T14:35:32;5.55;;;3.20;;
62030;SDS011;62035;52.094;5.112;2023-03-01T14:38:03;4.90;;;2.75;;
62030;SDS011;62035;52.094;5.112;2023-03-01T14:40:31;5.53;;;3.22;;
62030;SDS011;62035;52.094;5.112;2023-03-01T14:43:09;5.93;;;3.10;;
62030;SDS011;62035;52.094;5.112;2023-03-01T14:45:42;9.15;;;2.80;;
62030;SDS011;62035;52.094;5.112;2023-03-01T14:48:15;5.95;;;2.95;;
62030;SDS011;62035;52.094;5.112;2023-03-01T14:50:43;5.22;;;2.88;;
62030;SDS011;62035;52.094;5.112;2023-03-01T14:53:15;6.13;;;3.28;;
62030;SDS011;62035;52.094;5.112;2023-03-01T14:55:47;6.78;;;2.80;;
62030;SDS011;62035;52.094;5.112;2023-03-01T14:58:22;6.63;;;2.85;;
62030;SDS011;62035;52.094;5.112;2023-03-01T15:00:52;5.68;;;3.20;;
62030;SDS011;62035;52.094;5.112;2023-03-01T15:03:24;5.75;;;3.20;;
62030;SDS011;62035;52.094;5.112;2023-03-01T15:05:59;5.28;;;2.97;;
62030;SDS011;62035;52.094;5.112;2023-03-01T15:08:29;6.22;;;2.88;;
62030;SDS011;62035;52.094;5.112;2023-03-01T15:11:01;4.75;;;2.72;;
62030;SDS011;62035;52.094;5.112;2023-03-01T15:16:02;6.53;;;3.03;;
62030;SDS011;62035;52.094;5.112;2023-03-01T15:18:38;5.13;;;3.00;;
62030;SDS011;62035;52.094;5.112;2023-03-01T15:21:16;8.02;;;3.05;;
62030;SDS011;62035;52.094;5.112;2023-03-01T15:23:49;8.05;;;3.22;;